sensor_id;sensor_type;location;lat;lon;timestamp;temperature;humidity
59847;DHT22;45728;48.788;2.302;2023-04-03T00:01:17;7.10;99.90
59847;DHT22;45728;48.788;2.302;2023-04-03T00:03:43;7.10;99.90
59847;DHT22;45728;48.788;2.302;2023-04-03T00:06:10;7.20;99.90
59847;DHT22;45728;48.788;2.302;2023-04-03T00:08:37;7.20;99.90
59847;DHT22;45728;48.788;2.302;2023-04-03T00:11:04;7.20;99.90
59847;DHT22;45728;48.788;2.302;2023-04-03T00:13:30;7.20;99.90
59847;DHT22;45728;48.788;2.302;2023-04-03T00:15:57;7.20;99.90
59847;DHT22;45728;48.788;2.302;2023-04-03T00:18:23;7.20;99.90
59847;DHT22;45728;48.788;2.302;2023-04-03T00:20:49;7.20;99.90
59847;DHT22;45728;48.788;2.302;2023-04-03T00:23:15;7.20;99.90
59847;DHT22;45728;48.788;2.302;2023-04-03T00:25:42;7.20;99.90
59847;DHT22;45728;48.788;2.302;2023-04-03T00:28:08;7.30;99.90
59847;DHT22;45728;48.788;2.302;2023-04-03T00:30:34;7.20;99.90
59847;DHT22;45728;48.788;2.302;2023-04-03T00:33:01;7.10;99.90
59847;DHT22;45728;48.788;2.302;2023-04-03T00:35:27;7.10;99.90
59847;DHT22;45728;48.788;2.302;2023-04-03T00:37:55;7.10;99.90
59847;DHT22;45728;48.788;2.302;2023-04-03T00:40:23;7.10;99.90
59847;DHT22;45728;48.788;2.302;2023-04-03T00:42:54;7.10;99.90
59847;DHT22;45728;48.788;2.302;2023-04-03T00:45:34;7.10;99.90
59847;DHT22;45728;48.788;2.302;2023-04-03T00:48:04;7.10;99.90
59847;DHT22;45728;48.788;2.302;2023-04-03T00:50:33;7.10;99.90
59847;DHT22;45728;48.788;2.302;2023-04-03T00:53:00;7.10;99.90
59847;DHT22;45728;48.788;2.302;2023-04-03T00:55:27;7.00;99.90
59847;DHT22;45728;48.788;2.302;2023-04-03T00:57:55;7.00;99.90
59847;DHT22;45728;48.788;2.302;2023-04-03T01:00:23;7.00;99.90
59847;DHT22;45728;48.788;2.302;2023-04-03T01:02:51;7.00;99.90
59847;DHT22;45728;48.788;2.302;2023-04-03T01:05:19;7.00;99.90
59847;DHT22;45728;48.788;2.302;2023-04-03T01:07:46;7.00;99.90
59847;DHT22;45728;48.788;2.302;2023-04-03T01:10:15;7.00;99.90
59847;DHT22;45728;48.788;2.302;2023-04-03T01:12:44;6.90;99.90
59847;DHT22;45728;48.788;2.302;2023-04-03T01:15:22;6.90;99.90
59847;DHT22;45728;48.788;2.302;2023-04-03T01:17:51;6.90;99.90
59847;DHT22;45728;48.788;2.302;2023-04-03T01:25:45;7.00;99.90
59847;DHT22;45728;48.788;2.302;2023-04-03T01:28:25;6.90;99.90
59847;DHT22;45728;48.788;2.302;2023-04-03T01:31:13;6.90;99.90
59847;DHT22;45728;48.788;2.302;2023-04-03T01:33:41;6.90;99.90
59847;DHT22;45728;48.788;2.302;2023-04-03T01:36:08;6.80;99.90
59847;DHT22;45728;48.788;2.302;2023-04-03T01:38:35;6.90;99.90
59847;DHT22;45728;48.788;2.302;2023-04-03T01:41:01;6.90;99.90
59847;DHT22;45728;48.788;2.302;2023-04-03T01:43:27;7.00;99.90
59847;DHT22;45728;48.788;2.302;2023-04-03T01:45:53;7.00;99.90
59847;DHT22;45728;48.788;2.302;2023-04-03T01:48:20;6.90;99.90
59847;DHT22;45728;48.788;2.302;2023-04-03T01:50:47;7.00;99.90
59847;DHT22;45728;48.788;2.302;2023-04-03T01:53:13;7.00;99.90
59847;DHT22;45728;48.788;2.302;2023-04-03T01:55:39;7.00;99.90
59847;DHT22;45728;48.788;2.302;2023-04-03T01:58:05;7.00;99.90
59847;DHT22;45728;48.788;2.302;2023-04-03T02:00:31;7.00;99.90
59847;DHT22;45728;48.788;2.302;2023-04-03T02:02:57;7.00;99.90
59847;DHT22;45728;48.788;2.302;2023-04-03T02:05:23;7.10;99.90
59847;DHT22;45728;48.788;2.302;2023-04-03T02:07:49;7.00;99.90
59847;DHT22;45728;48.788;2.302;2023-04-03T02:10:15;7.00;99.90
59847;DHT22;45728;48.788;2.302;2023-04-03T02:12:42;6.90;99.90
59847;DHT22;45728;48.788;2.302;2023-04-03T02:15:08;6.90;99.90
59847;DHT22;45728;48.788;2.302;2023-04-03T02:17:35;6.90;99.90
59847;DHT22;45728;48.788;2.302;2023-04-03T02:20:01;6.80;99.90
59847;DHT22;45728;48.788;2.302;2023-04-03T02:22:27;6.80;99.90
59847;DHT22;45728;48.788;2.302;2023-04-03T02:24:53;6.70;99.90
59847;DHT22;45728;48.788;2.302;2023-04-03T02:27:19;6.70;99.90
59847;DHT22;45728;48.788;2.302;2023-04-03T02:29:45;6.70;99.90
59847;DHT22;45728;48.788;2.302;2023-04-03T02:32:11;6.70;99.90
59847;DHT22;45728;48.788;2.302;2023-04-03T02:34:37;6.80;99.90
59847;DHT22;45728;48.788;2.302;2023-04-03T02:37:03;6.70;99.90
59847;DHT22;45728;48.788;2.302;2023-04-03T02:39:30;6.70;99.90
59847;DHT22;45728;48.788;2.302;2023-04-03T02:41:56;6.70;99.90
59847;DHT22;45728;48.788;2.302;2023-04-03T02:44:22;6.60;99.90
59847;DHT22;45728;48.788;2.302;2023-04-03T02:46:49;6.70;99.90
59847;DHT22;45728;48.788;2.302;2023-04-03T02:49:15;6.70;99.90
59847;DHT22;45728;48.788;2.302;2023-04-03T02:51:41;6.70;99.90
59847;DHT22;45728;48.788;2.302;2023-04-03T02:54:08;6.70;99.90
59847;DHT22;45728;48.788;2.302;2023-04-03T02:56:34;6.70;99.90
59847;DHT22;45728;48.788;2.302;2023-04-03T02:59:00;6.70;99.90
59847;DHT22;45728;48.788;2.302;2023-04-03T03:01:26;6.70;99.90
59847;DHT22;45728;48.788;2.302;2023-04-03T03:03:58;6.80;99.90
59847;DHT22;45728;48.788;2.302;2023-04-03T03:06:24;6.70;99.90
59847;DHT22;45728;48.788;2.302;2023-04-03T03:08:50;6.70;99.90
59847;DHT22;45728;48.788;2.302;2023-04-03T03:11:16;6.80;99.90
59847;DHT22;45728;48.788;2.302;2023-04-03T03:13:42;6.80;99.90
59847;DHT22;45728;48.788;2.302;2023-04-03T03:16:08;6.70;99.90
59847;DHT22;45728;48.788;2.302;2023-04-03T03:18:35;6.70;99.90
59847;DHT22;45728;48.788;2.302;2023-04-03T03:21:03;6.70;99.90
59847;DHT22;45728;48.788;2.302;2023-04-03T03:23:31;6.70;99.90
59847;DHT22;45728;48.788;2.302;2023-04-03T03:26:00;6.70;99.90
59847;DHT22;45728;48.788;2.302;2023-04-03T03:28:26;6.70;99.90
59847;DHT22;45728;48.788;2.302;2023-04-03T03:30:53;6.70;99.90
59847;DHT22;45728;48.788;2.302;2023-04-03T03:33:19;6.70;99.90
59847;DHT22;45728;48.788;2.302;2023-04-03T03:35:45;6.70;99.90
59847;DHT22;45728;48.788;2.302;2023-04-03T03:38:11;6.70;99.90
59847;DHT22;45728;48.788;2.302;2023-04-03T03:40:38;6.80;99.90
59847;DHT22;45728;48.788;2.302;2023-04-03T03:43:04;6.70;99.90
59847;DHT22;45728;48.788;2.302;2023-04-03T03:45:30;6.70;99.90
59847;DHT22;45728;48.788;2.302;2023-04-03T03:47:57;6.70;99.90
59847;DHT22;45728;48.788;2.302;2023-04-03T03:50:23;6.70;99.90
59847;DHT22;45728;48.788;2.302;2023-04-03T03:52:49;6.70;99.90
59847;DHT22;45728;48.788;2.302;2023-04-03T03:55:15;6.70;99.90
59847;DHT22;45728;48.788;2.302;2023-04-03T03:57:41;6.70;99.90
59847;DHT22;45728;48.788;2.302;2023-04-03T04:00:08;6.60;99.90
59847;DHT22;45728;48.788;2.302;2023-04-03T04:02:34;6.60;99.90
59847;DHT22;45728;48.788;2.302;2023-04-03T04:05:00;6.60;99.90
59847;DHT22;45728;48.788;2.302;2023-04-03T04:07:26;6.60;99.90
59847;DHT22;45728;48.788;2.302;2023-04-03T04:09:54;6.60;99.90
59847;DHT22;45728;48.788;2.302;2023-04-03T04:12:20;6.50;99.90
59847;DHT22;45728;48.788;2.302;2023-04-03T04:14:47;6.50;99.90
59847;DHT22;45728;48.788;2.302;2023-04-03T04:17:14;6.60;99.90
59847;DHT22;45728;48.788;2.302;2023-04-03T04:19:40;6.50;99.90
59847;DHT22;45728;48.788;2.302;2023-04-03T04:22:06;6.50;99.90
59847;DHT22;45728;48.788;2.302;2023-04-03T04:24:32;6.50;99.90
59847;DHT22;45728;48.788;2.302;2023-04-03T04:26:59;6.60;99.90
59847;DHT22;45728;48.788;2.302;2023-04-03T04:29:25;6.60;99.90
59847;DHT22;45728;48.788;2.302;2023-04-03T04:31:51;6.60;99.90
59847;DHT22;45728;48.788;2.302;2023-04-03T04:34:17;6.60;99.90
59847;DHT22;45728;48.788;2.302;2023-04-03T04:36:43;6.60;99.90
59847;DHT22;45728;48.788;2.302;2023-04-03T04:39:09;6.50;99.90
59847;DHT22;45728;48.788;2.302;2023-04-03T04:41:35;6.50;99.90
59847;DHT22;45728;48.788;2.302;2023-04-03T04:44:01;6.50;99.90
59847;DHT22;45728;48.788;2.302;2023-04-03T04:46:27;6.50;99.90
59847;DHT22;45728;48.788;2.302;2023-04-03T04:48:53;6.50;99.90
59847;DHT22;45728;48.788;2.302;2023-04-03T04:51:19;6.50;99.90
59847;DHT22;45728;48.788;2.302;2023-04-03T04:53:45;6.50;99.90
59847;DHT22;45728;48.788;2.302;2023-04-03T04:56:12;6.50;99.90
59847;DHT22;45728;48.788;2.302;2023-04-03T04:58:38;6.60;99.90
59847;DHT22;45728;48.788;2.302;2023-04-03T05:01:09;6.50;99.90
59847;DHT22;45728;48.788;2.302;2023-04-03T05:03:36;6.40;99.90
59847;DHT22;45728;48.788;2.302;2023-04-03T05:06:03;6.40;99.90
59847;DHT22;45728;48.788;2.302;2023-04-03T05:08:29;6.50;99.90
59847;DHT22;45728;48.788;2.302;2023-04-03T05:10:55;6.40;99.90
59847;DHT22;45728;48.788;2.302;2023-04-03T05:13:21;6.40;99.90
59847;DHT22;45728;48.788;2.302;2023-04-03T05:15:47;6.30;99.90
59847;DHT22;45728;48.788;2.302;2023-04-03T05:18:13;6.20;99.90
59847;DHT22;45728;48.788;2.302;2023-04-03T05:20:40;6.10;99.90
59847;DHT22;45728;48.788;2.302;2023-04-03T05:23:06;6.20;99.90
59847;DHT22;45728;48.788;2.302;2023-04-03T05:25:32;6.20;99.90
59847;DHT22;45728;48.788;2.302;2023-04-03T05:27:58;6.20;99.90
59847;DHT22;45728;48.788;2.302;2023-04-03T05:30:24;6.10;99.90
59847;DHT22;45728;48.788;2.302;2023-04-03T05:32:50;6.00;99.90
59847;DHT22;45728;48.788;2.302;2023-04-03T05:35:16;6.10;99.90
59847;DHT22;45728;48.788;2.302;2023-04-03T05:37:42;6.00;99.90
59847;DHT22;45728;48.788;2.302;2023-04-03T05:40:09;6.00;99.90
59847;DHT22;45728;48.788;2.302;2023-04-03T05:42:35;6.10;99.90
59847;DHT22;45728;48.788;2.302;2023-04-03T05:45:01;6.10;99.90
59847;DHT22;45728;48.788;2.302;2023-04-03T05:47:27;6.10;99.90
59847;DHT22;45728;48.788;2.302;2023-04-03T05:49:53;6.10;99.90
59847;DHT22;45728;48.788;2.302;2023-04-03T05:52:49;6.10;99.90
59847;DHT22;45728;48.788;2.302;2023-04-03T05:55:15;6.10;99.90
59847;DHT22;45728;48.788;2.302;2023-04-03T05:57:42;6.10;99.90
59847;DHT22;45728;48.788;2.302;2023-04-03T06:00:10;6.10;99.90
59847;DHT22;45728;48.788;2.302;2023-04-03T06:02:38;6.10;99.90
59847;DHT22;45728;48.788;2.302;2023-04-03T06:05:04;6.20;99.90
59847;DHT22;45728;48.788;2.302;2023-04-03T06:07:31;6.20;99.90
59847;DHT22;45728;48.788;2.302;2023-04-03T06:09:57;6.20;99.90
59847;DHT22;45728;48.788;2.302;2023-04-03T06:12:23;6.20;99.90
59847;DHT22;45728;48.788;2.302;2023-04-03T06:14:49;6.20;99.90
59847;DHT22;45728;48.788;2.302;2023-04-03T06:17:16;6.10;99.90
59847;DHT22;45728;48.788;2.302;2023-04-03T06:19:44;6.10;99.90
59847;DHT22;45728;48.788;2.302;2023-04-03T06:22:10;6.10;99.90
59847;DHT22;45728;48.788;2.302;2023-04-03T06:24:37;6.10;99.90
59847;DHT22;45728;48.788;2.302;2023-04-03T06:27:04;6.10;99.90
59847;DHT22;45728;48.788;2.302;2023-04-03T06:29:30;6.10;99.90
59847;DHT22;45728;48.788;2.302;2023-04-03T06:31:56;6.20;99.90
59847;DHT22;45728;48.788;2.302;2023-04-03T06:34:22;6.20;99.90
59847;DHT22;45728;48.788;2.302;2023-04-03T06:36:49;6.20;99.90
59847;DHT22;45728;48.788;2.302;2023-04-03T06:39:18;6.20;99.90
59847;DHT22;45728;48.788;2.302;2023-04-03T06:41:51;6.30;99.90
59847;DHT22;45728;48.788;2.302;2023-04-03T06:44:17;6.30;99.90
59847;DHT22;45728;48.788;2.302;2023-04-03T06:46:44;6.30;99.90
59847;DHT22;45728;48.788;2.302;2023-04-03T06:49:12;6.30;99.90
59847;DHT22;45728;48.788;2.302;2023-04-03T06:51:38;6.30;99.90
59847;DHT22;45728;48.788;2.302;2023-04-03T06:54:06;6.30;99.90
59847;DHT22;45728;48.788;2.302;2023-04-03T06:56:34;6.30;99.90
59847;DHT22;45728;48.788;2.302;2023-04-03T06:59:00;6.30;99.90
59847;DHT22;45728;48.788;2.302;2023-04-03T07:01:28;6.30;99.90
59847;DHT22;45728;48.788;2.302;2023-04-03T07:03:54;6.30;99.90
59847;DHT22;45728;48.788;2.302;2023-04-03T07:06:21;6.30;99.90
59847;DHT22;45728;48.788;2.302;2023-04-03T07:08:47;6.40;99.90
59847;DHT22;45728;48.788;2.302;2023-04-03T07:11:15;6.40;99.90
59847;DHT22;45728;48.788;2.302;2023-04-03T07:13:41;6.40;99.90
59847;DHT22;45728;48.788;2.302;2023-04-03T07:16:08;6.40;99.90
59847;DHT22;45728;48.788;2.302;2023-04-03T07:18:34;6.50;99.90
59847;DHT22;45728;48.788;2.302;2023-04-03T07:21:01;6.50;99.90
59847;DHT22;45728;48.788;2.302;2023-04-03T07:23:28;6.50;99.90
59847;DHT22;45728;48.788;2.302;2023-04-03T07:25:54;6.60;99.90
59847;DHT22;45728;48.788;2.302;2023-04-03T07:28:21;6.70;99.90
59847;DHT22;45728;48.788;2.302;2023-04-03T07:30:51;6.80;99.90
59847;DHT22;45728;48.788;2.302;2023-04-03T07:33:19;6.80;99.90
59847;DHT22;45728;48.788;2.302;2023-04-03T07:35:46;6.80;99.90
59847;DHT22;45728;48.788;2.302;2023-04-03T07:38:12;6.80;99.90
59847;DHT22;45728;48.788;2.302;2023-04-03T07:40:39;6.80;99.90
59847;DHT22;45728;48.788;2.302;2023-04-03T07:43:05;6.90;99.90
59847;DHT22;45728;48.788;2.302;2023-04-03T07:45:34;6.90;99.90
59847;DHT22;45728;48.788;2.302;2023-04-03T07:48:00;6.80;99.90
59847;DHT22;45728;48.788;2.302;2023-04-03T07:50:26;6.90;99.90
59847;DHT22;45728;48.788;2.302;2023-04-03T07:52:53;7.00;99.90
59847;DHT22;45728;48.788;2.302;2023-04-03T07:55:22;7.00;99.90
59847;DHT22;45728;48.788;2.302;2023-04-03T07:57:48;7.00;99.90
59847;DHT22;45728;48.788;2.302;2023-04-03T08:00:14;7.00;99.90
59847;DHT22;45728;48.788;2.302;2023-04-03T08:02:40;7.10;99.90
59847;DHT22;45728;48.788;2.302;2023-04-03T08:05:07;7.20;99.90
59847;DHT22;45728;48.788;2.302;2023-04-03T08:07:33;7.20;99.90
59847;DHT22;45728;48.788;2.302;2023-04-03T08:09:59;7.10;99.90
59847;DHT22;45728;48.788;2.302;2023-04-03T08:12:25;7.20;99.90
59847;DHT22;45728;48.788;2.302;2023-04-03T08:14:51;7.30;99.90
59847;DHT22;45728;48.788;2.302;2023-04-03T08:17:17;7.70;99.90
59847;DHT22;45728;48.788;2.302;2023-04-03T08:19:43;7.80;99.90
59847;DHT22;45728;48.788;2.302;2023-04-03T08:22:09;7.80;99.90
59847;DHT22;45728;48.788;2.302;2023-04-03T08:24:36;8.00;99.90
59847;DHT22;45728;48.788;2.302;2023-04-03T08:27:02;8.20;99.90
59847;DHT22;45728;48.788;2.302;2023-04-03T08:29:28;8.20;99.90
59847;DHT22;45728;48.788;2.302;2023-04-03T08:31:54;8.30;99.90
59847;DHT22;45728;48.788;2.302;2023-04-03T08:34:21;8.20;99.90
59847;DHT22;45728;48.788;2.302;2023-04-03T08:36:47;8.30;99.90
59847;DHT22;45728;48.788;2.302;2023-04-03T08:39:13;8.10;99.90
59847;DHT22;45728;48.788;2.302;2023-04-03T08:41:41;8.10;99.90
59847;DHT22;45728;48.788;2.302;2023-04-03T08:49:47;8.00;99.90
59847;DHT22;45728;48.788;2.302;2023-04-03T08:52:19;8.10;99.90
59847;DHT22;45728;48.788;2.302;2023-04-03T08:54:52;7.80;99.90
59847;DHT22;45728;48.788;2.302;2023-04-03T08:57:28;7.80;99.90
59847;DHT22;45728;48.788;2.302;2023-04-03T08:59:55;8.20;99.90
59847;DHT22;45728;48.788;2.302;2023-04-03T09:04:59;7.70;99.90
59847;DHT22;45728;48.788;2.302;2023-04-03T09:07:39;7.50;99.90
59847;DHT22;45728;48.788;2.302;2023-04-03T09:10:12;7.70;99.90
59847;DHT22;45728;48.788;2.302;2023-04-03T09:12:42;7.80;99.90
59847;DHT22;45728;48.788;2.302;2023-04-03T09:15:18;7.90;99.90
59847;DHT22;45728;48.788;2.302;2023-04-03T09:23:30;8.60;99.90
59847;DHT22;45728;48.788;2.302;2023-04-03T09:26:11;7.90;99.90
59847;DHT22;45728;48.788;2.302;2023-04-03T09:28:41;7.90;99.90
59847;DHT22;45728;48.788;2.302;2023-04-03T09:31:38;8.10;99.90
59847;DHT22;45728;48.788;2.302;2023-04-03T09:34:18;7.90;99.90
59847;DHT22;45728;48.788;2.302;2023-04-03T09:39:26;7.90;99.90
59847;DHT22;45728;48.788;2.302;2023-04-03T09:42:05;8.00;99.90
59847;DHT22;45728;48.788;2.302;2023-04-03T09:44:39;8.10;99.90
59847;DHT22;45728;48.788;2.302;2023-04-03T09:47:28;8.30;99.90
59847;DHT22;45728;48.788;2.302;2023-04-03T09:52:48;8.20;99.90
59847;DHT22;45728;48.788;2.302;2023-04-03T09:55:18;8.10;99.90
59847;DHT22;45728;48.788;2.302;2023-04-03T09:57:46;8.00;99.90
59847;DHT22;45728;48.788;2.302;2023-04-03T10:00:26;8.20;99.90
59847;DHT22;45728;48.788;2.302;2023-04-03T10:02:57;8.30;99.90
59847;DHT22;45728;48.788;2.302;2023-04-03T10:07:52;8.70;99.90
59847;DHT22;45728;48.788;2.302;2023-04-03T10:10:32;8.60;99.90
59847;DHT22;45728;48.788;2.302;2023-04-03T10:13:05;8.80;99.90
59847;DHT22;45728;48.788;2.302;2023-04-03T10:15:39;9.00;99.90
59847;DHT22;45728;48.788;2.302;2023-04-03T10:20:48;9.50;99.90
59847;DHT22;45728;48.788;2.302;2023-04-03T10:23:27;9.60;99.90
59847;DHT22;45728;48.788;2.302;2023-04-03T10:26:03;9.50;99.90
59847;DHT22;45728;48.788;2.302;2023-04-03T10:34:06;10.60;99.90
59847;DHT22;45728;48.788;2.302;2023-04-03T10:39:20;11.20;99.90
59847;DHT22;45728;48.788;2.302;2023-04-03T10:47:21;11.00;99.90
59847;DHT22;45728;48.788;2.302;2023-04-03T10:58:32;11.30;99.90
59847;DHT22;45728;48.788;2.302;2023-04-03T11:01:08;11.20;99.90
59847;DHT22;45728;48.788;2.302;2023-04-03T11:03:40;10.90;99.90
59847;DHT22;45728;48.788;2.302;2023-04-03T11:06:14;11.00;99.90
59847;DHT22;45728;48.788;2.302;2023-04-03T11:08:51;11.00;99.90
59847;DHT22;45728;48.788;2.302;2023-04-03T11:11:25;11.50;99.90
59847;DHT22;45728;48.788;2.302;2023-04-03T11:14:09;11.50;99.90
59847;DHT22;45728;48.788;2.302;2023-04-03T11:16:45;12.30;99.90
59847;DHT22;45728;48.788;2.302;2023-04-03T11:19:20;11.80;99.90
59847;DHT22;45728;48.788;2.302;2023-04-03T11:22:00;11.40;99.90
59847;DHT22;45728;48.788;2.302;2023-04-03T11:24:32;11.50;99.90
59847;DHT22;45728;48.788;2.302;2023-04-03T11:27:01;11.50;99.90
59847;DHT22;45728;48.788;2.302;2023-04-03T11:29:34;11.60;99.90
59847;DHT22;45728;48.788;2.302;2023-04-03T11:34:44;12.30;99.90
59847;DHT22;45728;48.788;2.302;2023-04-03T11:37:35;12.30;99.60
59847;DHT22;45728;48.788;2.302;2023-04-03T11:40:26;12.10;99.90
59847;DHT22;45728;48.788;2.302;2023-04-03T11:42:55;12.60;99.00
59847;DHT22;45728;48.788;2.302;2023-04-03T11:45:35;12.50;99.10
59847;DHT22;45728;48.788;2.302;2023-04-03T11:49:03;12.40;99.90
59847;DHT22;45728;48.788;2.302;2023-04-03T11:53:43;13.40;98.20
59847;DHT22;45728;48.788;2.302;2023-04-03T11:56:28;12.30;99.10
59847;DHT22;45728;48.788;2.302;2023-04-03T12:01:55;12.00;99.00
59847;DHT22;45728;48.788;2.302;2023-04-03T12:04:25;12.10;98.80
59847;DHT22;45728;48.788;2.302;2023-04-03T12:07:01;12.20;99.00
59847;DHT22;45728;48.788;2.302;2023-04-03T12:12:28;11.60;99.10
59847;DHT22;45728;48.788;2.302;2023-04-03T12:14:54;11.90;99.60
59847;DHT22;45728;48.788;2.302;2023-04-03T12:17:27;11.90;99.40
59847;DHT22;45728;48.788;2.302;2023-04-03T12:19:53;12.40;98.70
59847;DHT22;45728;48.788;2.302;2023-04-03T12:22:20;12.60;98.60
59847;DHT22;45728;48.788;2.302;2023-04-03T12:24:49;12.40;98.30
59847;DHT22;45728;48.788;2.302;2023-04-03T12:27:28;12.50;98.50
59847;DHT22;45728;48.788;2.302;2023-04-03T12:30:01;13.10;98.70
59847;DHT22;45728;48.788;2.302;2023-04-03T12:32:51;13.30;97.40
59847;DHT22;45728;48.788;2.302;2023-04-03T12:35:43;13.20;98.00
59847;DHT22;45728;48.788;2.302;2023-04-03T12:38:41;12.60;97.40
59847;DHT22;45728;48.788;2.302;2023-04-03T12:41:41;12.70;99.10
59847;DHT22;45728;48.788;2.302;2023-04-03T12:44:33;13.50;97.30
59847;DHT22;45728;48.788;2.302;2023-04-03T12:47:30;13.50;98.30
59847;DHT22;45728;48.788;2.302;2023-04-03T12:49:54;13.30;97.40
59847;DHT22;45728;48.788;2.302;2023-04-03T12:52:41;13.40;97.30
59847;DHT22;45728;48.788;2.302;2023-04-03T12:55:17;12.70;97.60
59847;DHT22;45728;48.788;2.302;2023-04-03T12:57:44;13.10;98.00
59847;DHT22;45728;48.788;2.302;2023-04-03T13:00:31;13.60;97.80
59847;DHT22;45728;48.788;2.302;2023-04-03T13:03:02;13.60;97.00
59847;DHT22;45728;48.788;2.302;2023-04-03T13:05:30;13.60;97.20
59847;DHT22;45728;48.788;2.302;2023-04-03T13:08:05;13.20;97.30
59847;DHT22;45728;48.788;2.302;2023-04-03T13:10:51;13.50;97.30
59847;DHT22;45728;48.788;2.302;2023-04-03T13:13:18;13.80;98.30
59847;DHT22;45728;48.788;2.302;2023-04-03T13:15:47;14.20;97.90
59847;DHT22;45728;48.788;2.302;2023-04-03T13:18:28;14.10;96.70
59847;DHT22;45728;48.788;2.302;2023-04-03T13:20:57;13.70;96.80
59847;DHT22;45728;48.788;2.302;2023-04-03T13:23:23;13.70;96.80
59847;DHT22;45728;48.788;2.302;2023-04-03T13:25:50;13.60;97.00
59847;DHT22;45728;48.788;2.302;2023-04-03T13:28:20;13.10;97.10
59847;DHT22;45728;48.788;2.302;2023-04-03T13:33:30;12.80;97.10
59847;DHT22;45728;48.788;2.302;2023-04-03T13:36:00;12.90;97.60
59847;DHT22;45728;48.788;2.302;2023-04-03T13:38:30;12.80;97.30
59847;DHT22;45728;48.788;2.302;2023-04-03T13:41:20;12.80;97.50
59847;DHT22;45728;48.788;2.302;2023-04-03T13:43:46;13.00;97.90
59847;DHT22;45728;48.788;2.302;2023-04-03T13:51:16;13.20;97.30
59847;DHT22;45728;48.788;2.302;2023-04-03T13:56:38;13.20;97.50
59847;DHT22;45728;48.788;2.302;2023-04-03T14:01:53;13.60;97.60
59847;DHT22;45728;48.788;2.302;2023-04-03T14:04:21;13.60;97.00
59847;DHT22;45728;48.788;2.302;2023-04-03T14:06:49;13.20;96.70
59847;DHT22;45728;48.788;2.302;2023-04-03T14:09:17;12.90;97.10
59847;DHT22;45728;48.788;2.302;2023-04-03T14:11:46;12.80;97.70
59847;DHT22;45728;48.788;2.302;2023-04-03T14:14:34;13.10;97.30
59847;DHT22;45728;48.788;2.302;2023-04-03T14:17:03;13.20;97.10
59847;DHT22;45728;48.788;2.302;2023-04-03T14:19:36;12.70;97.50
59847;DHT22;45728;48.788;2.302;2023-04-03T14:22:18;12.70;97.80
59847;DHT22;45728;48.788;2.302;2023-04-03T14:24:45;12.70;97.90
59847;DHT22;45728;48.788;2.302;2023-04-03T14:27:24;12.80;97.40
59847;DHT22;45728;48.788;2.302;2023-04-03T14:29:51;12.80;97.30
59847;DHT22;45728;48.788;2.302;2023-04-03T14:32:19;12.90;97.50
59847;DHT22;45728;48.788;2.302;2023-04-03T14:34:46;13.30;97.50
59847;DHT22;45728;48.788;2.302;2023-04-03T14:37:16;13.30;97.50
59847;DHT22;45728;48.788;2.302;2023-04-03T14:39:43;13.10;97.60
59847;DHT22;45728;48.788;2.302;2023-04-03T14:42:18;13.40;97.20
59847;DHT22;45728;48.788;2.302;2023-04-03T14:44:45;13.40;97.50
59847;DHT22;45728;48.788;2.302;2023-04-03T14:47:12;12.90;97.60
59847;DHT22;45728;48.788;2.302;2023-04-03T14:49:40;13.00;97.60
59847;DHT22;45728;48.788;2.302;2023-04-03T14:52:06;13.40;97.60
59847;DHT22;45728;48.788;2.302;2023-04-03T14:54:41;12.90;97.30
59847;DHT22;45728;48.788;2.302;2023-04-03T14:57:09;12.60;97.70
59847;DHT22;45728;48.788;2.302;2023-04-03T14:59:37;12.70;97.90
59847;DHT22;45728;48.788;2.302;2023-04-03T15:02:27;13.10;97.60
59847;DHT22;45728;48.788;2.302;2023-04-03T15:04:58;12.90;97.40
59847;DHT22;45728;48.788;2.302;2023-04-03T15:07:27;13.30;97.50
59847;DHT22;45728;48.788;2.302;2023-04-03T15:09:54;13.30;96.80
59847;DHT22;45728;48.788;2.302;2023-04-03T15:12:23;13.00;96.60
59847;DHT22;45728;48.788;2.302;2023-04-03T15:14:50;13.00;97.10
59847;DHT22;45728;48.788;2.302;2023-04-03T15:17:22;13.20;97.80
59847;DHT22;45728;48.788;2.302;2023-04-03T15:19:49;13.20;96.80
59847;DHT22;45728;48.788;2.302;2023-04-03T15:22:18;13.00;97.00
59847;DHT22;45728;48.788;2.302;2023-04-03T15:24:45;12.80;97.30
59847;DHT22;45728;48.788;2.302;2023-04-03T15:27:12;12.80;97.40
59847;DHT22;45728;48.788;2.302;2023-04-03T15:29:40;12.50;97.60
59847;DHT22;45728;48.788;2.302;2023-04-03T15:32:07;12.50;97.60
59847;DHT22;45728;48.788;2.302;2023-04-03T15:34:33;12.80;97.80
59847;DHT22;45728;48.788;2.302;2023-04-03T15:36:59;12.80;97.40
59847;DHT22;45728;48.788;2.302;2023-04-03T15:39:26;12.90;97.80
59847;DHT22;45728;48.788;2.302;2023-04-03T15:41:52;13.10;97.20
59847;DHT22;45728;48.788;2.302;2023-04-03T15:44:20;12.80;97.40
59847;DHT22;45728;48.788;2.302;2023-04-03T15:46:47;12.80;97.70
59847;DHT22;45728;48.788;2.302;2023-04-03T15:49:14;12.80;97.10
59847;DHT22;45728;48.788;2.302;2023-04-03T15:51:41;12.80;97.30
59847;DHT22;45728;48.788;2.302;2023-04-03T15:54:09;13.10;97.60
59847;DHT22;45728;48.788;2.302;2023-04-03T15:56:35;12.60;96.90
59847;DHT22;45728;48.788;2.302;2023-04-03T15:59:01;12.60;97.50
59847;DHT22;45728;48.788;2.302;2023-04-03T16:01:27;12.50;97.10
59847;DHT22;45728;48.788;2.302;2023-04-03T16:03:54;12.50;97.20
59847;DHT22;45728;48.788;2.302;2023-04-03T16:06:20;12.60;97.70
59847;DHT22;45728;48.788;2.302;2023-04-03T16:08:47;12.80;97.40
59847;DHT22;45728;48.788;2.302;2023-04-03T16:11:14;12.80;97.60
59847;DHT22;45728;48.788;2.302;2023-04-03T16:13:41;12.90;97.20
59847;DHT22;45728;48.788;2.302;2023-04-03T16:16:08;12.80;97.20
59847;DHT22;45728;48.788;2.302;2023-04-03T16:18:34;12.80;97.00
59847;DHT22;45728;48.788;2.302;2023-04-03T16:21:01;12.70;96.80
59847;DHT22;45728;48.788;2.302;2023-04-03T16:23:27;12.60;97.10
59847;DHT22;45728;48.788;2.302;2023-04-03T16:25:54;12.70;97.30
59847;DHT22;45728;48.788;2.302;2023-04-03T16:28:20;12.70;97.30
59847;DHT22;45728;48.788;2.302;2023-04-03T16:30:46;12.80;97.50
59847;DHT22;45728;48.788;2.302;2023-04-03T16:33:13;12.80;97.30
59847;DHT22;45728;48.788;2.302;2023-04-03T16:35:40;12.80;97.70
59847;DHT22;45728;48.788;2.302;2023-04-03T16:38:07;12.90;96.90
59847;DHT22;45728;48.788;2.302;2023-04-03T16:40:34;13.00;96.90
59847;DHT22;45728;48.788;2.302;2023-04-03T16:43:01;12.90;96.80
59847;DHT22;45728;48.788;2.302;2023-04-03T16:45:27;12.90;96.80
59847;DHT22;45728;48.788;2.302;2023-04-03T16:47:53;12.70;97.30
59847;DHT22;45728;48.788;2.302;2023-04-03T16:50:19;12.80;97.30
59847;DHT22;45728;48.788;2.302;2023-04-03T16:52:46;13.00;97.60
59847;DHT22;45728;48.788;2.302;2023-04-03T16:55:12;12.90;96.90
59847;DHT22;45728;48.788;2.302;2023-04-03T16:57:38;12.80;97.20
59847;DHT22;45728;48.788;2.302;2023-04-03T17:00:07;12.90;97.40
59847;DHT22;45728;48.788;2.302;2023-04-03T17:02:34;12.80;97.20
59847;DHT22;45728;48.788;2.302;2023-04-03T17:05:00;12.80;97.40
59847;DHT22;45728;48.788;2.302;2023-04-03T17:07:26;12.90;97.40
59847;DHT22;45728;48.788;2.302;2023-04-03T17:09:52;12.90;97.20